sensor_id;sensor_type;location;lat;lon;timestamp;P1;durP1;ratioP1;P2;durP2;ratioP2
33573;SDS011;20085;50.832;4.392;2022-09-12T00:01:11;10.50;;;7.22;;
33573;SDS011;20085;50.832;4.392;2022-09-12T00:03:44;10.65;;;6.88;;
33573;SDS011;20085;50.832;4.392;2022-09-12T00:06:18;12.88;;;7.10;;
33573;SDS011;20085;50.832;4.392;2022-09-12T00:08:48;10.77;;;6.97;;
33573;SDS011;20085;50.832;4.392;2022-09-12T00:11:15;14.18;;;7.32;;
33573;SDS011;20085;50.832;4.392;2022-09-12T00:13:41;10.88;;;7.03;;
33573;SDS011;20085;50.832;4.392;2022-09-12T00:16:13;13.40;;;6.72;;
33573;SDS011;20085;50.832;4.392;2022-09-12T00:18:40;12.00;;;6.90;;
33573;SDS011;20085;50.832;4.392;2022-09-12T00:21:06;10.57;;;6.80;;
33573;SDS011;20085;50.832;4.392;2022-09-12T00:23:32;10.38;;;7.00;;
33573;SDS011;20085;50.832;4.392;2022-09-12T00:25:58;10.93;;;7.03;;
33573;SDS011;20085;50.832;4.392;2022-09-12T00:28:24;12.68;;;7.20;;
33573;SDS011;20085;50.832;4.392;2022-09-12T00:30:49;10.38;;;6.93;;
33573;SDS011;20085;50.832;4.392;2022-09-12T00:33:15;12.05;;;7.10;;
33573;SDS011;20085;50.832;4.392;2022-09-12T00:38:15;11.50;;;7.13;;
33573;SDS011;20085;50.832;4.392;2022-09-12T00:40:41;10.25;;;6.82;;
33573;SDS011;20085;50.832;4.392;2022-09-12T00:43:31;11.00;;;6.70;;
33573;SDS011;20085;50.832;4.392;2022-09-12T00:46:05;10.63;;;6.63;;
33573;SDS011;20085;50.832;4.392;2022-09-12T00:48:49;13.23;;;7.28;;
33573;SDS011;20085;50.832;4.392;2022-09-12T00:51:17;9.77;;;6.45;;
33573;SDS011;20085;50.832;4.392;2022-09-12T00:53:44;10.35;;;6.57;;
33573;SDS011;20085;50.832;4.392;2022-09-12T00:56:12;13.10;;;6.75;;
33573;SDS011;20085;50.832;4.392;2022-09-12T00:58:41;10.90;;;6.78;;
33573;SDS011;20085;50.832;4.392;2022-09-12T01:01:12;10.38;;;7.05;;
33573;SDS011;20085;50.832;4.392;2022-09-12T01:03:38;11.20;;;7.57;;
33573;SDS011;20085;50.832;4.392;2022-09-12T01:06:10;11.65;;;6.72;;
33573;SDS011;20085;50.832;4.392;2022-09-12T01:08:47;9.48;;;6.43;;
33573;SDS011;20085;50.832;4.392;2022-09-12T01:11:15;10.70;;;7.05;;
33573;SDS011;20085;50.832;4.392;2022-09-12T01:13:43;11.32;;;7.40;;
33573;SDS011;20085;50.832;4.392;2022-09-12T01:16:09;15.40;;;7.30;;
33573;SDS011;20085;50.832;4.392;2022-09-12T01:18:41;11.45;;;6.93;;
33573;SDS011;20085;50.832;4.392;2022-09-12T01:21:24;11.35;;;7.38;;
33573;SDS011;20085;50.832;4.392;2022-09-12T01:29:45;12.23;;;7.00;;
33573;SDS011;20085;50.832;4.392;2022-09-12T01:40:37;12.43;;;7.18;;
33573;SDS011;20085;50.832;4.392;2022-09-12T01:43:17;11.38;;;6.57;;
33573;SDS011;20085;50.832;4.392;2022-09-12T01:48:46;13.45;;;7.68;;
33573;SDS011;20085;50.832;4.392;2022-09-12T01:51:27;11.48;;;7.47;;
33573;SDS011;20085;50.832;4.392;2022-09-12T01:54:05;14.10;;;8.20;;
33573;SDS011;20085;50.832;4.392;2022-09-12T01:56:37;14.23;;;8.10;;
33573;SDS011;20085;50.832;4.392;2022-09-12T01:59:12;12.95;;;7.93;;
33573;SDS011;20085;50.832;4.392;2022-09-12T02:02:10;13.80;;;8.07;;
33573;SDS011;20085;50.832;4.392;2022-09-12T02:04:43;14.65;;;8.10;;
33573;SDS011;20085;50.832;4.392;2022-09-12T02:07:21;12.15;;;8.13;;
33573;SDS011;20085;50.832;4.392;2022-09-12T02:12:59;14.15;;;8.07;;
33573;SDS011;20085;50.832;4.392;2022-09-12T02:15:50;12.10;;;8.27;;
33573;SDS011;20085;50.832;4.392;2022-09-12T02:18:20;11.93;;;8.40;;
33573;SDS011;20085;50.832;4.392;2022-09-12T02:20:51;10.38;;;8.13;;
33573;SDS011;20085;50.832;4.392;2022-09-12T02:23:22;12.85;;;8.13;;
33573;SDS011;20085;50.832;4.392;2022-09-12T02:25:52;13.20;;;8.90;;
33573;SDS011;20085;50.832;4.392;2022-09-12T02:28:36;11.18;;;8.65;;
33573;SDS011;20085;50.832;4.392;2022-09-12T02:36:20;11.98;;;8.52;;
33573;SDS011;20085;50.832;4.392;2022-09-12T02:38:55;15.80;;;8.75;;
33573;SDS011;20085;50.832;4.392;2022-09-12T02:41:20;15.55;;;9.07;;
33573;SDS011;20085;50.832;4.392;2022-09-12T02:43:47;12.63;;;8.82;;
33573;SDS011;20085;50.832;4.392;2022-09-12T02:46:19;14.40;;;8.75;;
33573;SDS011;20085;50.832;4.392;2022-09-12T02:48:51;10.05;;;8.13;;
33573;SDS011;20085;50.832;4.392;2022-09-12T02:51:18;12.27;;;8.55;;
33573;SDS011;20085;50.832;4.392;2022-09-12T02:53:45;12.85;;;8.73;;
33573;SDS011;20085;50.832;4.392;2022-09-12T02:56:12;19.05;;;8.70;;
33573;SDS011;20085;50.832;4.392;2022-09-12T02:58:43;12.35;;;8.43;;
33573;SDS011;20085;50.832;4.392;2022-09-12T03:07:02;12.75;;;9.00;;
33573;SDS011;20085;50.832;4.392;2022-09-12T03:09:53;13.20;;;8.10;;
33573;SDS011;20085;50.832;4.392;2022-09-12T03:13:21;14.23;;;8.70;;
33573;SDS011;20085;50.832;4.392;2022-09-12T03:15:58;15.48;;;8.95;;
33573;SDS011;20085;50.832;4.392;2022-09-12T03:18:59;14.77;;;9.30;;
33573;SDS011;20085;50.832;4.392;2022-09-12T03:21:40;11.95;;;8.85;;
33573;SDS011;20085;50.832;4.392;2022-09-12T03:24:16;13.73;;;9.00;;
33573;SDS011;20085;50.832;4.392;2022-09-12T03:27:15;12.60;;;9.20;;
33573;SDS011;20085;50.832;4.392;2022-09-12T03:29:44;15.75;;;8.93;;
33573;SDS011;20085;50.832;4.392;2022-09-12T03:32:12;12.93;;;9.30;;
33573;SDS011;20085;50.832;4.392;2022-09-12T03:34:38;13.43;;;8.93;;
33573;SDS011;20085;50.832;4.392;2022-09-12T03:37:04;13.68;;;8.80;;
33573;SDS011;20085;50.832;4.392;2022-09-12T03:39:29;10.63;;;8.10;;
33573;SDS011;20085;50.832;4.392;2022-09-12T03:41:55;11.57;;;7.50;;
33573;SDS011;20085;50.832;4.392;2022-09-12T03:44:21;16.38;;;8.35;;
33573;SDS011;20085;50.832;4.392;2022-09-12T03:46:47;11.98;;;7.78;;
33573;SDS011;20085;50.832;4.392;2022-09-12T03:49:13;11.35;;;7.75;;
33573;SDS011;20085;50.832;4.392;2022-09-12T03:51:39;12.07;;;7.80;;
33573;SDS011;20085;50.832;4.392;2022-09-12T03:54:04;14.48;;;8.05;;
33573;SDS011;20085;50.832;4.392;2022-09-12T03:56:30;19.05;;;8.35;;
33573;SDS011;20085;50.832;4.392;2022-09-12T03:58:56;15.05;;;8.52;;
33573;SDS011;20085;50.832;4.392;2022-09-12T04:01:22;13.40;;;8.00;;
33573;SDS011;20085;50.832;4.392;2022-09-12T04:03:48;12.25;;;8.48;;
33573;SDS011;20085;50.832;4.392;2022-09-12T04:06:17;14.15;;;8.32;;
33573;SDS011;20085;50.832;4.392;2022-09-12T04:08:46;17.83;;;9.18;;
33573;SDS011;20085;50.832;4.392;2022-09-12T04:11:14;16.02;;;9.48;;
33573;SDS011;20085;50.832;4.392;2022-09-12T04:13:42;17.33;;;8.32;;
33573;SDS011;20085;50.832;4.392;2022-09-12T04:16:09;16.17;;;9.32;;
33573;SDS011;20085;50.832;4.392;2022-09-12T04:18:36;17.00;;;9.32;;
33573;SDS011;20085;50.832;4.392;2022-09-12T04:21:05;15.55;;;10.15;;
33573;SDS011;20085;50.832;4.392;2022-09-12T04:23:32;15.27;;;9.70;;
33573;SDS011;20085;50.832;4.392;2022-09-12T04:25:59;13.80;;;9.73;;
33573;SDS011;20085;50.832;4.392;2022-09-12T04:28:26;15.55;;;10.35;;
33573;SDS011;20085;50.832;4.392;2022-09-12T04:30:59;17.95;;;10.35;;
33573;SDS011;20085;50.832;4.392;2022-09-12T04:33:26;15.23;;;9.90;;
33573;SDS011;20085;50.832;4.392;2022-09-12T04:35:52;18.55;;;10.65;;
33573;SDS011;20085;50.832;4.392;2022-09-12T04:38:17;18.48;;;11.73;;
33573;SDS011;20085;50.832;4.392;2022-09-12T04:40:43;19.73;;;11.93;;
33573;SDS011;20085;50.832;4.392;2022-09-12T04:43:08;18.67;;;12.32;;
33573;SDS011;20085;50.832;4.392;2022-09-12T04:45:34;18.88;;;12.18;;
33573;SDS011;20085;50.832;4.392;2022-09-12T04:48:03;17.48;;;11.88;;
33573;SDS011;20085;50.832;4.392;2022-09-12T04:50:31;18.90;;;12.43;;
33573;SDS011;20085;50.832;4.392;2022-09-12T04:52:57;19.00;;;12.30;;
33573;SDS011;20085;50.832;4.392;2022-09-12T04:55:22;18.55;;;12.00;;
33573;SDS011;20085;50.832;4.392;2022-09-12T04:57:49;16.70;;;12.13;;
33573;SDS011;20085;50.832;4.392;2022-09-12T05:00:14;16.38;;;11.52;;
33573;SDS011;20085;50.832;4.392;2022-09-12T05:02:40;15.40;;;11.23;;
33573;SDS011;20085;50.832;4.392;2022-09-12T05:05:06;15.77;;;11.68;;
33573;SDS011;20085;50.832;4.392;2022-09-12T05:07:33;16.75;;;11.80;;
33573;SDS011;20085;50.832;4.392;2022-09-12T05:09:59;17.40;;;11.70;;
33573;SDS011;20085;50.832;4.392;2022-09-12T05:12:25;16.13;;;11.40;;
33573;SDS011;20085;50.832;4.392;2022-09-12T05:14:51;15.30;;;11.10;;
33573;SDS011;20085;50.832;4.392;2022-09-12T05:17:17;19.50;;;11.55;;
33573;SDS011;20085;50.832;4.392;2022-09-12T05:19:43;19.73;;;11.98;;
33573;SDS011;20085;50.832;4.392;2022-09-12T05:22:08;18.52;;;11.43;;
33573;SDS011;20085;50.832;4.392;2022-09-12T05:24:34;16.63;;;11.13;;
33573;SDS011;20085;50.832;4.392;2022-09-12T05:27:01;14.40;;;10.77;;
33573;SDS011;20085;50.832;4.392;2022-09-12T05:29:28;18.05;;;10.35;;
33573;SDS011;20085;50.832;4.392;2022-09-12T05:31:54;18.08;;;10.73;;
33573;SDS011;20085;50.832;4.392;2022-09-12T05:34:20;17.30;;;11.40;;
33573;SDS011;20085;50.832;4.392;2022-09-12T05:36:46;26.70;;;10.55;;
33573;SDS011;20085;50.832;4.392;2022-09-12T05:39:11;18.27;;;10.43;;
33573;SDS011;20085;50.832;4.392;2022-09-12T05:41:39;16.40;;;10.35;;
33573;SDS011;20085;50.832;4.392;2022-09-12T05:44:05;17.33;;;10.20;;
33573;SDS011;20085;50.832;4.392;2022-09-12T05:46:35;15.82;;;10.55;;
33573;SDS011;20085;50.832;4.392;2022-09-12T05:49:04;13.95;;;9.48;;
33573;SDS011;20085;50.832;4.392;2022-09-12T05:51:31;17.48;;;10.70;;
33573;SDS011;20085;50.832;4.392;2022-09-12T05:53:59;18.30;;;9.77;;
33573;SDS011;20085;50.832;4.392;2022-09-12T05:56:28;16.38;;;10.77;;
33573;SDS011;20085;50.832;4.392;2022-09-12T05:58:58;19.30;;;9.65;;
33573;SDS011;20085;50.832;4.392;2022-09-12T06:01:26;15.43;;;9.30;;
33573;SDS011;20085;50.832;4.392;2022-09-12T06:03:55;21.55;;;9.82;;
33573;SDS011;20085;50.832;4.392;2022-09-12T06:06:22;14.48;;;9.75;;
33573;SDS011;20085;50.832;4.392;2022-09-12T06:08:50;15.82;;;9.57;;
33573;SDS011;20085;50.832;4.392;2022-09-12T06:11:19;15.55;;;9.82;;
33573;SDS011;20085;50.832;4.392;2022-09-12T06:13:46;14.82;;;9.63;;
33573;SDS011;20085;50.832;4.392;2022-09-12T06:16:12;14.85;;;9.00;;
33573;SDS011;20085;50.832;4.392;2022-09-12T06:18:46;18.05;;;9.32;;
33573;SDS011;20085;50.832;4.392;2022-09-12T06:21:13;15.60;;;9.65;;
33573;SDS011;20085;50.832;4.392;2022-09-12T06:23:39;15.57;;;9.70;;
33573;SDS011;20085;50.832;4.392;2022-09-12T06:26:06;16.80;;;9.90;;
33573;SDS011;20085;50.832;4.392;2022-09-12T06:28:34;14.25;;;9.32;;
33573;SDS011;20085;50.832;4.392;2022-09-12T06:31:02;16.88;;;9.95;;
33573;SDS011;20085;50.832;4.392;2022-09-12T06:33:29;14.50;;;9.48;;
33573;SDS011;20085;50.832;4.392;2022-09-12T06:36:04;18.17;;;9.32;;
33573;SDS011;20085;50.832;4.392;2022-09-12T06:38:31;13.25;;;9.07;;
33573;SDS011;20085;50.832;4.392;2022-09-12T06:40:58;13.35;;;9.32;;
33573;SDS011;20085;50.832;4.392;2022-09-12T06:43:24;16.20;;;9.75;;
33573;SDS011;20085;50.832;4.392;2022-09-12T06:45:51;14.35;;;8.90;;
33573;SDS011;20085;50.832;4.392;2022-09-12T06:48:16;12.73;;;8.55;;
33573;SDS011;20085;50.832;4.392;2022-09-12T06:50:42;13.20;;;8.23;;
33573;SDS011;20085;50.832;4.392;2022-09-12T06:53:08;14.05;;;8.75;;
33573;SDS011;20085;50.832;4.392;2022-09-12T06:55:34;14.40;;;8.73;;
33573;SDS011;20085;50.832;4.392;2022-09-12T06:57:59;16.60;;;8.35;;
33573;SDS011;20085;50.832;4.392;2022-09-12T07:00:25;14.35;;;7.82;;
33573;SDS011;20085;50.832;4.392;2022-09-12T07:02:54;14.40;;;8.60;;
33573;SDS011;20085;50.832;4.392;2022-09-12T07:05:22;17.42;;;9.45;;
33573;SDS011;20085;50.832;4.392;2022-09-12T07:07:48;11.98;;;8.38;;
33573;SDS011;20085;50.832;4.392;2022-09-12T07:10:14;13.40;;;8.35;;
33573;SDS011;20085;50.832;4.392;2022-09-12T07:12:39;11.13;;;7.57;;
33573;SDS011;20085;50.832;4.392;2022-09-12T07:15:05;12.95;;;7.65;;
33573;SDS011;20085;50.832;4.392;2022-09-12T07:17:31;12.68;;;7.38;;
33573;SDS011;20085;50.832;4.392;2022-09-12T07:19:56;11.25;;;7.10;;
33573;SDS011;20085;50.832;4.392;2022-09-12T07:22:22;12.75;;;7.07;;
33573;SDS011;20085;50.832;4.392;2022-09-12T07:24:47;13.50;;;6.90;;
33573;SDS011;20085;50.832;4.392;2022-09-12T07:27:14;11.18;;;6.45;;
33573;SDS011;20085;50.832;4.392;2022-09-12T07:29:40;11.00;;;6.65;;
33573;SDS011;20085;50.832;4.392;2022-09-12T07:32:05;9.30;;;6.25;;
33573;SDS011;20085;50.832;4.392;2022-09-12T07:34:31;12.75;;;6.43;;
33573;SDS011;20085;50.832;4.392;2022-09-12T07:36:58;11.10;;;6.10;;
33573;SDS011;20085;50.832;4.392;2022-09-12T07:39:24;11.80;;;6.20;;
33573;SDS011;20085;50.832;4.392;2022-09-12T07:41:50;8.85;;;5.88;;
33573;SDS011;20085;50.832;4.392;2022-09-12T07:44:15;10.25;;;5.63;;
33573;SDS011;20085;50.832;4.392;2022-09-12T07:46:41;8.48;;;5.47;;
33573;SDS011;20085;50.832;4.392;2022-09-12T07:49:06;10.07;;;5.70;;
33573;SDS011;20085;50.832;4.392;2022-09-12T07:51:32;11.05;;;5.72;;
33573;SDS011;20085;50.832;4.392;2022-09-12T07:53:58;10.13;;;5.40;;
33573;SDS011;20085;50.832;4.392;2022-09-12T07:56:24;11.10;;;5.60;;
33573;SDS011;20085;50.832;4.392;2022-09-12T07:58:51;8.85;;;5.38;;
33573;SDS011;20085;50.832;4.392;2022-09-12T08:01:17;9.48;;;5.28;;
33573;SDS011;20085;50.832;4.392;2022-09-12T08:03:48;8.85;;;5.50;;
33573;SDS011;20085;50.832;4.392;2022-09-12T08:06:18;10.95;;;5.28;;
33573;SDS011;20085;50.832;4.392;2022-09-12T08:08:47;11.38;;;6.00;;
33573;SDS011;20085;50.832;4.392;2022-09-12T08:11:15;14.30;;;5.30;;
33573;SDS011;20085;50.832;4.392;2022-09-12T08:13:42;9.77;;;6.05;;
33573;SDS011;20085;50.832;4.392;2022-09-12T08:16:12;9.23;;;4.72;;
33573;SDS011;20085;50.832;4.392;2022-09-12T08:18:40;7.72;;;4.50;;
33573;SDS011;20085;50.832;4.392;2022-09-12T08:21:06;11.13;;;4.72;;
33573;SDS011;20085;50.832;4.392;2022-09-12T08:23:40;7.78;;;4.80;;
33573;SDS011;20085;50.832;4.392;2022-09-12T08:26:08;11.10;;;5.40;;
33573;SDS011;20085;50.832;4.392;2022-09-12T08:28:34;10.27;;;4.90;;
33573;SDS011;20085;50.832;4.392;2022-09-12T08:31:04;8.18;;;4.60;;
33573;SDS011;20085;50.832;4.392;2022-09-12T08:33:34;9.63;;;5.90;;
33573;SDS011;20085;50.832;4.392;2022-09-12T08:36:04;13.43;;;5.25;;
33573;SDS011;20085;50.832;4.392;2022-09-12T08:38:35;7.72;;;5.00;;
33573;SDS011;20085;50.832;4.392;2022-09-12T08:43:55;14.95;;;6.75;;
33573;SDS011;20085;50.832;4.392;2022-09-12T08:49:33;11.40;;;4.68;;
33573;SDS011;20085;50.832;4.392;2022-09-12T08:52:05;9.77;;;5.18;;
33573;SDS011;20085;50.832;4.392;2022-09-12T08:54:37;11.27;;;5.15;;
33573;SDS011;20085;50.832;4.392;2022-09-12T08:57:04;12.98;;;6.97;;
33573;SDS011;20085;50.832;4.392;2022-09-12T08:59:35;10.40;;;5.10;;
33573;SDS011;20085;50.832;4.392;2022-09-12T09:02:04;9.70;;;4.97;;
33573;SDS011;20085;50.832;4.392;2022-09-12T09:05:16;10.70;;;5.30;;
33573;SDS011;20085;50.832;4.392;2022-09-12T09:10:25;10.05;;;5.15;;
33573;SDS011;20085;50.832;4.392;2022-09-12T09:16:16;10.25;;;4.45;;
33573;SDS011;20085;50.832;4.392;2022-09-12T09:18:57;11.52;;;4.82;;
33573;SDS011;20085;50.832;4.392;2022-09-12T09:21:28;9.60;;;4.88;;
33573;SDS011;20085;50.832;4.392;2022-09-12T09:24:09;7.95;;;4.68;;
33573;SDS011;20085;50.832;4.392;2022-09-12T09:29:19;11.07;;;4.00;;
33573;SDS011;20085;50.832;4.392;2022-09-12T09:31:48;8.57;;;4.05;;
33573;SDS011;20085;50.832;4.392;2022-09-12T09:34:18;6.90;;;3.78;;
33573;SDS011;20085;50.832;4.392;2022-09-12T09:42:20;8.65;;;3.60;;
33573;SDS011;20085;50.832;4.392;2022-09-12T09:44:49;8.90;;;4.20;;
33573;SDS011;20085;50.832;4.392;2022-09-12T09:47:18;9.38;;;3.63;;
33573;SDS011;20085;50.832;4.392;2022-09-12T09:49:44;7.05;;;3.50;;
33573;SDS011;20085;50.832;4.392;2022-09-12T09:52:12;7.60;;;3.20;;
33573;SDS011;20085;50.832;4.392;2022-09-12T09:54:45;5.40;;;3.00;;
33573;SDS011;20085;50.832;4.392;2022-09-12T10:05:46;7.85;;;3.70;;
33573;SDS011;20085;50.832;4.392;2022-09-12T10:08:25;6.03;;;3.42;;
33573;SDS011;20085;50.832;4.392;2022-09-12T10:11:02;7.32;;;3.17;;
33573;SDS011;20085;50.832;4.392;2022-09-12T10:14:02;6.97;;;3.17;;
33573;SDS011;20085;50.832;4.392;2022-09-12T10:16:32;6.47;;;2.60;;
33573;SDS011;20085;50.832;4.392;2022-09-12T10:19:12;8.23;;;2.70;;
33573;SDS011;20085;50.832;4.392;2022-09-12T10:21:52;8.77;;;3.53;;
33573;SDS011;20085;50.832;4.392;2022-09-12T10:26:52;7.35;;;3.67;;
33573;SDS011;20085;50.832;4.392;2022-09-12T10:29:30;6.15;;;3.00;;
33573;SDS011;20085;50.832;4.392;2022-09-12T10:31:58;6.95;;;2.60;;
33573;SDS011;20085;50.832;4.392;2022-09-12T10:34:30;8.23;;;2.95;;
33573;SDS011;20085;50.832;4.392;2022-09-12T10:37:03;8.20;;;4.40;;
33573;SDS011;20085;50.832;4.392;2022-09-12T10:39:34;6.35;;;2.92;;
33573;SDS011;20085;50.832;4.392;2022-09-12T10:42:02;9.70;;;3.22;;
33573;SDS011;20085;50.832;4.392;2022-09-12T10:44:30;8.15;;;3.10;;
33573;SDS011;20085;50.832;4.392;2022-09-12T10:46:58;7.95;;;3.08;;
33573;SDS011;20085;50.832;4.392;2022-09-12T10:49:42;8.30;;;3.33;;
33573;SDS011;20085;50.832;4.392;2022-09-12T10:52:15;5.45;;;2.47;;
33573;SDS011;20085;50.832;4.392;2022-09-12T10:54:45;6.55;;;3.05;;
33573;SDS011;20085;50.832;4.392;2022-09-12T11:14:11;6.30;;;2.60;;
33573;SDS011;20085;50.832;4.392;2022-09-12T11:37:35;12.85;;;7.93;;
33573;SDS011;20085;50.832;4.392;2022-09-12T11:42:44;9.38;;;2.97;;
33573;SDS011;20085;50.832;4.392;2022-09-12T11:45:12;4.80;;;2.50;;
33573;SDS011;20085;50.832;4.392;2022-09-12T11:47:43;7.57;;;2.53;;
33573;SDS011;20085;50.832;4.392;2022-09-12T11:50:16;8.13;;;2.80;;
33573;SDS011;20085;50.832;4.392;2022-09-12T11:52:50;8.27;;;2.60;;
33573;SDS011;20085;50.832;4.392;2022-09-12T11:55:21;10.85;;;2.83;;
33573;SDS011;20085;50.832;4.392;2022-09-12T11:57:51;9.38;;;3.05;;
33573;SDS011;20085;50.832;4.392;2022-09-12T12:03:00;7.82;;;2.63;;
33573;SDS011;20085;50.832;4.392;2022-09-12T12:05:39;5.15;;;2.53;;
33573;SDS011;20085;50.832;4.392;2022-09-12T12:10:59;5.53;;;2.42;;
33573;SDS011;20085;50.832;4.392;2022-09-12T12:16:14;10.85;;;2.15;;
33573;SDS011;20085;50.832;4.392;2022-09-12T12:18:52;7.40;;;2.90;;
33573;SDS011;20085;50.832;4.392;2022-09-12T12:29:34;6.70;;;2.30;;
33573;SDS011;20085;50.832;4.392;2022-09-12T12:34:40;5.88;;;1.90;;
33573;SDS011;20085;50.832;4.392;2022-09-12T12:42:17;3.97;;;1.90;;
33573;SDS011;20085;50.832;4.392;2022-09-12T12:52:54;5.88;;;1.63;;
33573;SDS011;20085;50.832;4.392;2022-09-12T12:55:37;5.05;;;1.90;;
33573;SDS011;20085;50.832;4.392;2022-09-12T12:58:06;4.78;;;1.92;;
33573;SDS011;20085;50.832;4.392;2022-09-12T13:01:00;8.27;;;4.50;;
33573;SDS011;20085;50.832;4.392;2022-09-12T13:06:43;4.82;;;1.92;;
33573;SDS011;20085;50.832;4.392;2022-09-12T13:09:31;4.15;;;1.90;;
33573;SDS011;20085;50.832;4.392;2022-09-12T13:12:05;8.73;;;1.95;;
33573;SDS011;20085;50.832;4.392;2022-09-12T13:14:35;4.38;;;1.83;;
33573;SDS011;20085;50.832;4.392;2022-09-12T13:22:37;4.55;;;2.00;;
33573;SDS011;20085;50.832;4.392;2022-09-12T13:32:57;6.45;;;3.58;;
33573;SDS011;20085;50.832;4.392;2022-09-12T13:35:39;6.13;;;1.77;;
33573;SDS011;20085;50.832;4.392;2022-09-12T13:43:45;6.35;;;2.08;;
33573;SDS011;20085;50.832;4.392;2022-09-12T13:46:14;4.63;;;1.92;;
33573;SDS011;20085;50.832;4.392;2022-09-12T13:48:49;3.53;;;1.80;;
33573;SDS011;20085;50.832;4.392;2022-09-12T13:51:25;6.55;;;2.15;;
33573;SDS011;20085;50.832;4.392;2022-09-12T13:53:54;6.70;;;2.13;;
33573;SDS011;20085;50.832;4.392;2022-09-12T13:56:24;7.65;;;1.92;;
33573;SDS011;20085;50.832;4.392;2022-09-12T13:58:50;5.13;;;1.90;;
33573;SDS011;20085;50.832;4.392;2022-09-12T14:01:17;8.10;;;2.00;;
33573;SDS011;20085;50.832;4.392;2022-09-12T14:03:50;4.35;;;1.80;;
33573;SDS011;20085;50.832;4.392;2022-09-12T14:06:46;5.18;;;2.10;;
33573;SDS011;20085;50.832;4.392;2022-09-12T14:09:25;4.72;;;1.92;;
33573;SDS011;20085;50.832;4.392;2022-09-12T14:11:53;3.58;;;1.80;;
33573;SDS011;20085;50.832;4.392;2022-09-12T14:14:24;4.72;;;1.73;;
33573;SDS011;20085;50.832;4.392;2022-09-12T14:16:56;5.70;;;2.00;;
33573;SDS011;20085;50.832;4.392;2022-09-12T14:19:22;10.02;;;2.60;;
33573;SDS011;20085;50.832;4.392;2022-09-12T14:21:50;6.38;;;2.17;;
33573;SDS011;20085;50.832;4.392;2022-09-12T14:24:17;4.07;;;1.70;;
33573;SDS011;20085;50.832;4.392;2022-09-12T14:26:48;8.07;;;2.42;;
33573;SDS011;20085;50.832;4.392;2022-09-12T14:29:17;5.72;;;1.95;;
33573;SDS011;20085;50.832;4.392;2022-09-12T14:31:44;3.97;;;1.80;;
33573;SDS011;20085;50.832;4.392;2022-09-12T14:34:14;4.10;;;1.77;;
33573;SDS011;20085;50.832;4.392;2022-09-12T14:36:42;4.88;;;1.80;;
33573;SDS011;20085;50.832;4.392;2022-09-12T14:39:16;4.35;;;1.85;;
33573;SDS011;20085;50.832;4.392;2022-09-12T14:41:50;3.85;;;1.90;;
33573;SDS011;20085;50.832;4.392;2022-09-12T14:44:26;3.90;;;1.77;;
33573;SDS011;20085;50.832;4.392;2022-09-12T14:46:53;5.47;;;1.90;;
33573;SDS011;20085;50.832;4.392;2022-09-12T14:49:34;3.47;;;1.75;;
33573;SDS011;20085;50.832;4.392;2022-09-12T14:52:04;4.68;;;1.80;;
33573;SDS011;20085;50.832;4.392;2022-09-12T14:54:39;8.07;;;1.92;;
33573;SDS011;20085;50.832;4.392;2022-09-12T15:00:04;3.92;;;1.80;;
33573;SDS011;20085;50.832;4.392;2022-09-12T15:02:51;17.73;;;11.88;;
33573;SDS011;20085;50.832;4.392;2022-09-12T15:05:18;7.78;;;2.45;;
33573;SDS011;20085;50.832;4.392;2022-09-12T15:10:19;3.75;;;1.70;;
33573;SDS011;20085;50.832;4.392;2022-09-12T15:12:49;8.25;;;1.90;;
33573;SDS011;20085;50.832;4.392;2022-09-12T15:15:38;8.18;;;1.85;;
33573;SDS011;20085;50.832;4.392;2022-09-12T15:18:05;6.45;;;1.67;;
33573;SDS011;20085;50.832;4.392;2022-09-12T15:20:31;6.25;;;2.00;;
33573;SDS011;20085;50.832;4.392;2022-09-12T15:22:59;3.83;;;1.70;;
33573;SDS011;20085;50.832;4.392;2022-09-12T15:25:25;6.95;;;3.90;;
33573;SDS011;20085;50.832;4.392;2022-09-12T15:27:51;5.63;;;1.90;;
33573;SDS011;20085;50.832;4.392;2022-09-12T15:30:17;6.03;;;1.75;;
33573;SDS011;20085;50.832;4.392;2022-09-12T15:32:43;4.45;;;1.60;;
33573;SDS011;20085;50.832;4.392;2022-09-12T15:35:12;4.30;;;1.60;;
33573;SDS011;20085;50.832;4.392;2022-09-12T15:37:42;4.30;;;1.98;;
33573;SDS011;20085;50.832;4.392;2022-09-12T15:40:08;3.55;;;1.60;;
33573;SDS011;20085;50.832;4.392;2022-09-12T15:42:35;3.95;;;1.85;;
33573;SDS011;20085;50.832;4.392;2022-09-12T15:45:01;3.05;;;1.65;;
33573;SDS011;20085;50.832;4.392;2022-09-12T15:47:34;3.88;;;2.00;;
33573;SDS011;20085;50.832;4.392;2022-09-12T15:49:59;4.97;;;1.50;;
33573;SDS011;20085;50.832;4.392;2022-09-12T15:52:25;7.18;;;2.50;;
33573;SDS011;20085;50.832;4.392;2022-09-12T15:54:51;5.57;;;1.80;;
33573;SDS011;20085;50.832;4.392;2022-09-12T15:57:16;4.15;;;1.60;;
33573;SDS011;20085;50.832;4.392;2022-09-12T15:59:42;3.35;;;1.60;;
33573;SDS011;20085;50.832;4.392;2022-09-12T16:02:08;6.20;;;1.70;;
33573;SDS011;20085;50.832;4.392;2022-09-12T16:04:35;3.50;;;1.63;;
33573;SDS011;20085;50.832;4.392;2022-09-12T16:07:00;9.02;;;2.67;;
33573;SDS011;20085;50.832;4.392;2022-09-12T16:09:26;4.55;;;1.90;;
33573;SDS011;20085;50.832;4.392;2022-09-12T16:11:52;5.00;;;2.00;;
33573;SDS011;20085;50.832;4.392;2022-09-12T16:14:17;4.47;;;1.88;;
33573;SDS011;20085;50.832;4.392;2022-09-12T16:16:43;3.55;;;1.50;;
33573;SDS011;20085;50.832;4.392;2022-09-12T16:19:16;4.15;;;1.77;;
33573;SDS011;20085;50.832;4.392;2022-09-12T16:21:42;4.88;;;1.63;;
33573;SDS011;20085;50.832;4.392;2022-09-12T16:24:08;3.67;;;1.80;;
33573;SDS011;20085;50.832;4.392;2022-09-12T16:26:33;9.98;;;2.05;;
33573;SDS011;20085;50.832;4.392;2022-09-12T16:28:59;4.50;;;2.05;;
33573;SDS011;20085;50.832;4.392;2022-09-12T16:31:25;4.55;;;1.90;;
33573;SDS011;20085;50.832;4.392;2022-09-12T16:33:51;4.50;;;1.60;;
33573;SDS011;20085;50.832;4.392;2022-09-12T16:36:18;7.50;;;1.90;;
33573;SDS011;20085;50.832;4.392;2022-09-12T16:38:45;4.18;;;1.88;;
33573;SDS011;20085;50.832;4.392;2022-09-12T16:41:15;6.15;;;1.80;;
33573;SDS011;20085;50.832;4.392;2022-09-12T16:43:42;3.70;;;1.75;;
33573;SDS011;20085;50.832;4.392;2022-09-12T16:46:13;4.63;;;1.92;;
33573;SDS011;20085;50.832;4.392;2022-09-12T16:48:48;4.63;;;1.70;;
33573;SDS011;20085;50.832;4.392;2022-09-12T16:51:16;4.18;;;1.70;;
33573;SDS011;20085;50.832;4.392;2022-09-12T16:53:46;10.90;;;1.80;;
33573;SDS011;20085;50.832;4.392;2022-09-12T16:56:12;4.40;;;2.03;;
33573;SDS011;20085;50.832;4.392;2022-09-12T16:58:39;5.13;;;1.65;;
33573;SDS011;20085;50.832;4.392;2022-09-12T17:01:06;4.10;;;1.80;;
33573;SDS011;20085;50.832;4.392;2022-09-12T17:03:40;6.72;;;1.90;;
33573;SDS011;20085;50.832;4.392;2022-09-12T17:06:24;6.53;;;1.77;;
33573;SDS011;20085;50.832;4.392;2022-09-12T17:08:51;6.70;;;2.17;;
33573;SDS011;20085;50.832;4.392;2022-09-12T17:11:20;6.00;;;2.00;;
33573;SDS011;20085;50.832;4.392;2022-09-12T17:13:51;4.50;;;2.00;;
33573;SDS011;20085;50.832;4.392;2022-09-12T17:16:20;4.57;;;2.22;;
33573;SDS011;20085;50.832;4.392;2022-09-12T17:18:46;6.20;;;2.05;;
33573;SDS011;20085;50.832;4.392;2022-09-12T17:21:12;7.03;;;2.00;;
33573;SDS011;20085;50.832;4.392;2022-09-12T17:23:38;6.65;;;2.10;;
33573;SDS011;20085;50.832;4.392;2022-09-12T17:26:04;5.82;;;2.20;;
33573;SDS011;20085;50.832;4.392;2022-09-12T17:28:31;4.55;;;2.00;;
33573;SDS011;20085;50.832;4.392;2022-09-12T17:30:57;5.97;;;2.25;;
33573;SDS011;20085;50.832;4.392;2022-09-12T17:33:27;7.25;;;2.58;;
33573;SDS011;20085;50.832;4.392;2022-09-12T17:35:54;9.45;;;2.63;;
33573;SDS011;20085;50.832;4.392;2022-09-12T17:38:19;6.78;;;2.38;;
33573;SDS011;20085;50.832;4.392;2022-09-12T17:40:47;6.35;;;2.63;;